Weather at Horseshoe Lights Airport

Public forecast

Using degrees Celsius for public forecast. Weather courtesy of forecast.io.

Closest aviation weather report (METAR) to Horseshoe Lights Airport

Closest report is Geraldton Airport, 294.1 nm (544.6 km) SW.

2024/05/18 22:00 (retrieved 29 minutes ago)

YGEL 182200Z AUTO 04012KT 9999 // NCD 16/03 Q1023 RF000/0000

Closest aviation forecast (TAF) to Horseshoe Lights Airport

Closest forecast is Geraldton Airport, 294.1 nm (544.6 km) SW.

2024/05/18 22:00 Ammendment (retrieved 29 minutes ago)

TAF AMD YGEL 182205Z 1822/1912 04016KT CAVOK FM190100 05018G30KT CAVOK FM190400 05014KT CAVOK